ΕΜΥ, Εθνική Μετεωρολογική Υπηρεσία - Δελτία Καιρού, Προγνώσεις

ΑΕΡΟΝΑΥΤΙΛΙΑ

GREEK AIRPORTS CODES

TAF LGTS 171700Z 1718/1818 16012KT 9999 FEW030 BECMG 1719/1721 VRB03KT=

EUROPEAN AIRPORTS CODES

LFPO 172230Z 04014KT CAVOK 15/08 Q1024 NOSIG=